sensor_id;sensor_type;location;lat;lon;timestamp;P1;durP1;ratioP1;P2;durP2;ratioP2
15256;SDS011;7731;50.720;6.912;2023-01-28T00:02:07;6.07;;;5.20;;
15256;SDS011;7731;50.720;6.912;2023-01-28T00:04:38;5.93;;;5.10;;
15256;SDS011;7731;50.720;6.912;2023-01-28T00:07:09;6.57;;;5.13;;
15256;SDS011;7731;50.720;6.912;2023-01-28T00:09:45;5.13;;;4.07;;
15256;SDS011;7731;50.720;6.912;2023-01-28T00:12:16;6.37;;;4.37;;
15256;SDS011;7731;50.720;6.912;2023-01-28T00:14:48;5.37;;;4.23;;
15256;SDS011;7731;50.720;6.912;2023-01-28T00:17:19;4.67;;;3.50;;
15256;SDS011;7731;50.720;6.912;2023-01-28T00:19:51;4.47;;;3.67;;
15256;SDS011;7731;50.720;6.912;2023-01-28T00:22:21;6.80;;;4.27;;
15256;SDS011;7731;50.720;6.912;2023-01-28T00:24:51;5.27;;;4.40;;
15256;SDS011;7731;50.720;6.912;2023-01-28T00:27:21;5.00;;;4.07;;
15256;SDS011;7731;50.720;6.912;2023-01-28T00:29:54;4.27;;;3.87;;
15256;SDS011;7731;50.720;6.912;2023-01-28T00:32:24;5.67;;;4.10;;
15256;SDS011;7731;50.720;6.912;2023-01-28T00:34:54;4.97;;;3.63;;
15256;SDS011;7731;50.720;6.912;2023-01-28T00:37:24;6.80;;;4.10;;
15256;SDS011;7731;50.720;6.912;2023-01-28T00:39:54;4.47;;;4.00;;
15256;SDS011;7731;50.720;6.912;2023-01-28T00:42:24;5.03;;;4.17;;
15256;SDS011;7731;50.720;6.912;2023-01-28T00:44:58;5.57;;;4.30;;
15256;SDS011;7731;50.720;6.912;2023-01-28T00:47:29;4.83;;;4.03;;
15256;SDS011;7731;50.720;6.912;2023-01-28T00:50:01;5.00;;;4.50;;
15256;SDS011;7731;50.720;6.912;2023-01-28T00:52:32;5.30;;;3.73;;
15256;SDS011;7731;50.720;6.912;2023-01-28T00:55:04;5.47;;;4.60;;
15256;SDS011;7731;50.720;6.912;2023-01-28T00:57:36;5.10;;;4.23;;
15256;SDS011;7731;50.720;6.912;2023-01-28T01:00:10;5.03;;;4.17;;
15256;SDS011;7731;50.720;6.912;2023-01-28T01:02:45;4.30;;;3.90;;
15256;SDS011;7731;50.720;6.912;2023-01-28T01:05:16;4.17;;;3.70;;
15256;SDS011;7731;50.720;6.912;2023-01-28T01:07:46;5.00;;;3.73;;
15256;SDS011;7731;50.720;6.912;2023-01-28T01:10:17;4.60;;;3.83;;
15256;SDS011;7731;50.720;6.912;2023-01-28T01:12:50;4.53;;;3.60;;
15256;SDS011;7731;50.720;6.912;2023-01-28T01:15:24;3.53;;;3.20;;
15256;SDS011;7731;50.720;6.912;2023-01-28T01:17:54;5.20;;;3.50;;
15256;SDS011;7731;50.720;6.912;2023-01-28T01:20:25;4.77;;;3.37;;
15256;SDS011;7731;50.720;6.912;2023-01-28T01:22:58;5.37;;;3.60;;
15256;SDS011;7731;50.720;6.912;2023-01-28T01:25:29;4.57;;;3.50;;
15256;SDS011;7731;50.720;6.912;2023-01-28T01:27:59;3.30;;;3.00;;
15256;SDS011;7731;50.720;6.912;2023-01-28T01:30:31;4.20;;;3.13;;
15256;SDS011;7731;50.720;6.912;2023-01-28T01:33:05;4.23;;;3.20;;
15256;SDS011;7731;50.720;6.912;2023-01-28T01:35:35;3.57;;;3.27;;
15256;SDS011;7731;50.720;6.912;2023-01-28T01:38:05;4.70;;;3.77;;
15256;SDS011;7731;50.720;6.912;2023-01-28T01:40:39;4.17;;;3.30;;
15256;SDS011;7731;50.720;6.912;2023-01-28T01:43:13;4.43;;;4.03;;
15256;SDS011;7731;50.720;6.912;2023-01-28T01:45:48;6.07;;;3.67;;
15256;SDS011;7731;50.720;6.912;2023-01-28T01:48:23;5.03;;;4.00;;
15256;SDS011;7731;50.720;6.912;2023-01-28T01:51:05;4.53;;;4.10;;
15256;SDS011;7731;50.720;6.912;2023-01-28T01:53:44;5.13;;;4.37;;
15256;SDS011;7731;50.720;6.912;2023-01-28T01:56:22;5.70;;;4.00;;
15256;SDS011;7731;50.720;6.912;2023-01-28T01:59:03;6.40;;;4.53;;
15256;SDS011;7731;50.720;6.912;2023-01-28T02:01:43;5.77;;;4.40;;
15256;SDS011;7731;50.720;6.912;2023-01-28T02:04:15;6.50;;;4.53;;
15256;SDS011;7731;50.720;6.912;2023-01-28T02:06:50;5.57;;;4.10;;
15256;SDS011;7731;50.720;6.912;2023-01-28T02:09:22;6.37;;;4.80;;
15256;SDS011;7731;50.720;6.912;2023-01-28T02:11:56;5.53;;;4.00;;
15256;SDS011;7731;50.720;6.912;2023-01-28T02:14:34;5.77;;;4.27;;
15256;SDS011;7731;50.720;6.912;2023-01-28T02:17:15;5.57;;;4.33;;
15256;SDS011;7731;50.720;6.912;2023-01-28T02:19:46;4.90;;;4.40;;
15256;SDS011;7731;50.720;6.912;2023-01-28T02:22:33;5.43;;;4.37;;
15256;SDS011;7731;50.720;6.912;2023-01-28T02:25:42;7.07;;;4.37;;
15256;SDS011;7731;50.720;6.912;2023-01-28T02:29:01;4.37;;;3.80;;
15256;SDS011;7731;50.720;6.912;2023-01-28T02:31:43;5.73;;;4.50;;
15256;SDS011;7731;50.720;6.912;2023-01-28T02:34:24;7.27;;;4.30;;
15256;SDS011;7731;50.720;6.912;2023-01-28T02:37:11;5.50;;;4.57;;
15256;SDS011;7731;50.720;6.912;2023-01-28T02:39:50;5.37;;;4.40;;
15256;SDS011;7731;50.720;6.912;2023-01-28T02:42:27;8.53;;;5.10;;
15256;SDS011;7731;50.720;6.912;2023-01-28T02:45:05;6.97;;;4.77;;
15256;SDS011;7731;50.720;6.912;2023-01-28T02:47:46;5.77;;;4.63;;
15256;SDS011;7731;50.720;6.912;2023-01-28T02:50:23;5.93;;;4.50;;
15256;SDS011;7731;50.720;6.912;2023-01-28T02:53:11;6.00;;;4.73;;
15256;SDS011;7731;50.720;6.912;2023-01-28T02:56:08;7.17;;;4.87;;
15256;SDS011;7731;50.720;6.912;2023-01-28T02:58:56;5.30;;;4.77;;
15256;SDS011;7731;50.720;6.912;2023-01-28T03:01:50;5.80;;;4.40;;
15256;SDS011;7731;50.720;6.912;2023-01-28T03:04:29;5.77;;;4.60;;
15256;SDS011;7731;50.720;6.912;2023-01-28T03:07:06;5.70;;;4.53;;
15256;SDS011;7731;50.720;6.912;2023-01-28T03:09:40;7.30;;;5.37;;
15256;SDS011;7731;50.720;6.912;2023-01-28T03:12:15;6.50;;;5.07;;
15256;SDS011;7731;50.720;6.912;2023-01-28T03:15:04;6.03;;;4.73;;
15256;SDS011;7731;50.720;6.912;2023-01-28T03:17:57;5.40;;;4.60;;
15256;SDS011;7731;50.720;6.912;2023-01-28T03:20:49;6.07;;;4.70;;
15256;SDS011;7731;50.720;6.912;2023-01-28T03:23:39;5.67;;;4.33;;
15256;SDS011;7731;50.720;6.912;2023-01-28T03:26:29;6.00;;;4.87;;
15256;SDS011;7731;50.720;6.912;2023-01-28T03:29:19;6.00;;;4.77;;
15256;SDS011;7731;50.720;6.912;2023-01-28T03:32:07;7.87;;;4.90;;
15256;SDS011;7731;50.720;6.912;2023-01-28T03:34:55;6.13;;;5.20;;
15256;SDS011;7731;50.720;6.912;2023-01-28T03:37:39;9.73;;;5.73;;
15256;SDS011;7731;50.720;6.912;2023-01-28T03:40:10;7.40;;;5.03;;
15256;SDS011;7731;50.720;6.912;2023-01-28T03:42:44;10.40;;;6.20;;
15256;SDS011;7731;50.720;6.912;2023-01-28T03:45:14;7.77;;;5.70;;
15256;SDS011;7731;50.720;6.912;2023-01-28T03:47:46;7.00;;;5.73;;
15256;SDS011;7731;50.720;6.912;2023-01-28T03:50:22;8.20;;;5.60;;
15256;SDS011;7731;50.720;6.912;2023-01-28T03:52:53;5.67;;;5.07;;
15256;SDS011;7731;50.720;6.912;2023-01-28T03:55:40;8.00;;;6.10;;
15256;SDS011;7731;50.720;6.912;2023-01-28T03:58:11;7.17;;;5.57;;
15256;SDS011;7731;50.720;6.912;2023-01-28T04:00:42;9.63;;;6.00;;
15256;SDS011;7731;50.720;6.912;2023-01-28T04:03:14;7.50;;;5.50;;
15256;SDS011;7731;50.720;6.912;2023-01-28T04:05:57;7.30;;;6.43;;
15256;SDS011;7731;50.720;6.912;2023-01-28T04:08:30;8.63;;;5.83;;
15256;SDS011;7731;50.720;6.912;2023-01-28T04:11:01;10.10;;;7.70;;
15256;SDS011;7731;50.720;6.912;2023-01-28T04:13:45;9.17;;;7.57;;
15256;SDS011;7731;50.720;6.912;2023-01-28T04:16:17;7.70;;;6.43;;
15256;SDS011;7731;50.720;6.912;2023-01-28T04:18:48;8.03;;;6.80;;
15256;SDS011;7731;50.720;6.912;2023-01-28T04:21:21;10.67;;;7.27;;
15256;SDS011;7731;50.720;6.912;2023-01-28T04:23:51;8.17;;;6.63;;
15256;SDS011;7731;50.720;6.912;2023-01-28T04:26:21;9.43;;;6.90;;
15256;SDS011;7731;50.720;6.912;2023-01-28T04:28:52;9.47;;;7.17;;
15256;SDS011;7731;50.720;6.912;2023-01-28T04:31:22;10.07;;;7.27;;
15256;SDS011;7731;50.720;6.912;2023-01-28T04:33:53;10.33;;;7.60;;
15256;SDS011;7731;50.720;6.912;2023-01-28T04:36:25;8.13;;;6.70;;
15256;SDS011;7731;50.720;6.912;2023-01-28T04:39:01;8.63;;;6.93;;
15256;SDS011;7731;50.720;6.912;2023-01-28T04:41:32;9.30;;;7.30;;
15256;SDS011;7731;50.720;6.912;2023-01-28T04:44:02;10.23;;;7.07;;
15256;SDS011;7731;50.720;6.912;2023-01-28T04:46:32;11.40;;;7.53;;
15256;SDS011;7731;50.720;6.912;2023-01-28T04:49:03;9.73;;;7.63;;
15256;SDS011;7731;50.720;6.912;2023-01-28T04:51:35;9.30;;;6.60;;
15256;SDS011;7731;50.720;6.912;2023-01-28T04:54:06;10.13;;;7.33;;
15256;SDS011;7731;50.720;6.912;2023-01-28T04:56:37;10.67;;;7.00;;
15256;SDS011;7731;50.720;6.912;2023-01-28T04:59:07;10.40;;;7.43;;
15256;SDS011;7731;50.720;6.912;2023-01-28T05:01:38;9.00;;;7.30;;
15256;SDS011;7731;50.720;6.912;2023-01-28T05:04:08;10.53;;;7.33;;
15256;SDS011;7731;50.720;6.912;2023-01-28T05:06:42;9.30;;;6.97;;
15256;SDS011;7731;50.720;6.912;2023-01-28T05:09:12;7.70;;;6.40;;
15256;SDS011;7731;50.720;6.912;2023-01-28T05:11:43;10.23;;;6.70;;
15256;SDS011;7731;50.720;6.912;2023-01-28T05:14:13;9.73;;;7.20;;
15256;SDS011;7731;50.720;6.912;2023-01-28T05:16:43;8.60;;;6.57;;
15256;SDS011;7731;50.720;6.912;2023-01-28T05:19:13;8.53;;;6.40;;
15256;SDS011;7731;50.720;6.912;2023-01-28T05:21:46;8.50;;;6.37;;
15256;SDS011;7731;50.720;6.912;2023-01-28T05:24:16;7.80;;;6.27;;
15256;SDS011;7731;50.720;6.912;2023-01-28T05:26:47;8.23;;;6.03;;
15256;SDS011;7731;50.720;6.912;2023-01-28T05:29:17;8.10;;;6.13;;
15256;SDS011;7731;50.720;6.912;2023-01-28T05:31:47;10.63;;;6.60;;
15256;SDS011;7731;50.720;6.912;2023-01-28T05:34:17;9.00;;;6.63;;
15256;SDS011;7731;50.720;6.912;2023-01-28T05:36:50;7.13;;;5.93;;
15256;SDS011;7731;50.720;6.912;2023-01-28T05:39:20;12.47;;;6.53;;
15256;SDS011;7731;50.720;6.912;2023-01-28T05:41:50;7.57;;;6.30;;
15256;SDS011;7731;50.720;6.912;2023-01-28T05:44:20;9.50;;;6.93;;
15256;SDS011;7731;50.720;6.912;2023-01-28T05:46:51;7.00;;;5.83;;
15256;SDS011;7731;50.720;6.912;2023-01-28T05:49:21;6.83;;;5.87;;
15256;SDS011;7731;50.720;6.912;2023-01-28T05:51:54;5.83;;;5.27;;
15256;SDS011;7731;50.720;6.912;2023-01-28T05:54:24;6.97;;;6.03;;
15256;SDS011;7731;50.720;6.912;2023-01-28T05:56:54;7.90;;;5.90;;
15256;SDS011;7731;50.720;6.912;2023-01-28T05:59:25;23.20;;;14.60;;
15256;SDS011;7731;50.720;6.912;2023-01-28T06:01:55;19.77;;;14.80;;
15256;SDS011;7731;50.720;6.912;2023-01-28T06:04:25;11.10;;;8.97;;
15256;SDS011;7731;50.720;6.912;2023-01-28T06:06:58;11.37;;;10.17;;
15256;SDS011;7731;50.720;6.912;2023-01-28T06:09:28;8.67;;;7.63;;
15256;SDS011;7731;50.720;6.912;2023-01-28T06:11:58;9.17;;;7.00;;
15256;SDS011;7731;50.720;6.912;2023-01-28T06:14:28;11.13;;;9.30;;
15256;SDS011;7731;50.720;6.912;2023-01-28T06:16:59;8.13;;;6.30;;
15256;SDS011;7731;50.720;6.912;2023-01-28T06:19:29;10.97;;;9.83;;
15256;SDS011;7731;50.720;6.912;2023-01-28T06:22:04;10.73;;;8.47;;
15256;SDS011;7731;50.720;6.912;2023-01-28T06:24:34;8.23;;;6.57;;
15256;SDS011;7731;50.720;6.912;2023-01-28T06:27:06;8.40;;;6.60;;
15256;SDS011;7731;50.720;6.912;2023-01-28T06:29:36;12.93;;;10.57;;
15256;SDS011;7731;50.720;6.912;2023-01-28T06:32:06;7.43;;;6.70;;
15256;SDS011;7731;50.720;6.912;2023-01-28T06:34:37;6.83;;;6.13;;
15256;SDS011;7731;50.720;6.912;2023-01-28T06:37:11;7.60;;;5.97;;
15256;SDS011;7731;50.720;6.912;2023-01-28T06:39:44;6.87;;;5.83;;
15256;SDS011;7731;50.720;6.912;2023-01-28T06:42:14;7.30;;;6.30;;
15256;SDS011;7731;50.720;6.912;2023-01-28T06:44:44;7.43;;;6.10;;
15256;SDS011;7731;50.720;6.912;2023-01-28T06:47:14;7.60;;;6.03;;
15256;SDS011;7731;50.720;6.912;2023-01-28T06:49:44;7.97;;;5.70;;
15256;SDS011;7731;50.720;6.912;2023-01-28T06:52:17;7.83;;;6.27;;
15256;SDS011;7731;50.720;6.912;2023-01-28T06:54:47;7.50;;;5.40;;
15256;SDS011;7731;50.720;6.912;2023-01-28T06:57:17;7.50;;;5.93;;
15256;SDS011;7731;50.720;6.912;2023-01-28T06:59:47;6.53;;;5.47;;
15256;SDS011;7731;50.720;6.912;2023-01-28T07:02:18;6.50;;;5.83;;
15256;SDS011;7731;50.720;6.912;2023-01-28T07:04:48;7.13;;;5.77;;
15256;SDS011;7731;50.720;6.912;2023-01-28T07:07:21;6.37;;;5.70;;
15256;SDS011;7731;50.720;6.912;2023-01-28T07:09:51;6.13;;;5.40;;
15256;SDS011;7731;50.720;6.912;2023-01-28T07:12:21;7.90;;;5.77;;
15256;SDS011;7731;50.720;6.912;2023-01-28T07:14:51;6.43;;;5.70;;
15256;SDS011;7731;50.720;6.912;2023-01-28T07:17:21;8.87;;;6.03;;
15256;SDS011;7731;50.720;6.912;2023-01-28T07:19:51;6.90;;;5.67;;
15256;SDS011;7731;50.720;6.912;2023-01-28T07:22:26;7.50;;;5.43;;
15256;SDS011;7731;50.720;6.912;2023-01-28T07:24:58;7.43;;;5.83;;
15256;SDS011;7731;50.720;6.912;2023-01-28T07:27:28;5.93;;;5.37;;
15256;SDS011;7731;50.720;6.912;2023-01-28T07:29:58;7.57;;;6.33;;
15256;SDS011;7731;50.720;6.912;2023-01-28T07:32:28;6.97;;;5.87;;
15256;SDS011;7731;50.720;6.912;2023-01-28T07:34:59;6.13;;;5.07;;
15256;SDS011;7731;50.720;6.912;2023-01-28T07:37:31;6.87;;;6.13;;
15256;SDS011;7731;50.720;6.912;2023-01-28T07:40:02;53.40;;;27.43;;
15256;SDS011;7731;50.720;6.912;2023-01-28T07:42:33;9.17;;;7.73;;
15256;SDS011;7731;50.720;6.912;2023-01-28T07:45:03;11.07;;;9.23;;
15256;SDS011;7731;50.720;6.912;2023-01-28T07:47:36;13.10;;;10.80;;
15256;SDS011;7731;50.720;6.912;2023-01-28T07:50:08;12.87;;;10.67;;
15256;SDS011;7731;50.720;6.912;2023-01-28T07:52:45;15.93;;;13.20;;
15256;SDS011;7731;50.720;6.912;2023-01-28T07:55:15;13.30;;;10.70;;
15256;SDS011;7731;50.720;6.912;2023-01-28T07:57:50;15.00;;;11.63;;
15256;SDS011;7731;50.720;6.912;2023-01-28T08:00:22;20.23;;;15.37;;
15256;SDS011;7731;50.720;6.912;2023-01-28T08:02:55;19.03;;;12.20;;
15256;SDS011;7731;50.720;6.912;2023-01-28T08:05:30;9.43;;;7.97;;
15256;SDS011;7731;50.720;6.912;2023-01-28T08:08:11;10.17;;;8.33;;
15256;SDS011;7731;50.720;6.912;2023-01-28T08:10:44;11.93;;;8.77;;
15256;SDS011;7731;50.720;6.912;2023-01-28T08:13:15;13.57;;;8.93;;
15256;SDS011;7731;50.720;6.912;2023-01-28T08:15:47;13.87;;;11.30;;
15256;SDS011;7731;50.720;6.912;2023-01-28T08:18:20;11.57;;;8.30;;
15256;SDS011;7731;50.720;6.912;2023-01-28T08:20:53;10.70;;;8.83;;
15256;SDS011;7731;50.720;6.912;2023-01-28T08:23:27;11.03;;;8.70;;
15256;SDS011;7731;50.720;6.912;2023-01-28T08:25:59;12.43;;;9.77;;
15256;SDS011;7731;50.720;6.912;2023-01-28T08:28:29;10.77;;;9.63;;
15256;SDS011;7731;50.720;6.912;2023-01-28T08:31:00;9.57;;;8.10;;
15256;SDS011;7731;50.720;6.912;2023-01-28T08:33:30;11.73;;;9.10;;
15256;SDS011;7731;50.720;6.912;2023-01-28T08:36:02;9.17;;;8.10;;
15256;SDS011;7731;50.720;6.912;2023-01-28T08:38:36;11.87;;;9.27;;
15256;SDS011;7731;50.720;6.912;2023-01-28T08:41:06;12.43;;;9.80;;
15256;SDS011;7731;50.720;6.912;2023-01-28T08:43:36;21.80;;;16.53;;
15256;SDS011;7731;50.720;6.912;2023-01-28T08:46:06;14.27;;;9.50;;
15256;SDS011;7731;50.720;6.912;2023-01-28T08:48:36;10.77;;;8.83;;
15256;SDS011;7731;50.720;6.912;2023-01-28T08:51:06;10.67;;;9.17;;
15256;SDS011;7731;50.720;6.912;2023-01-28T08:53:40;11.37;;;9.00;;
15256;SDS011;7731;50.720;6.912;2023-01-28T08:56:13;11.47;;;9.77;;
15256;SDS011;7731;50.720;6.912;2023-01-28T08:58:43;12.27;;;9.27;;
15256;SDS011;7731;50.720;6.912;2023-01-28T09:01:13;12.60;;;8.67;;
15256;SDS011;7731;50.720;6.912;2023-01-28T09:03:43;10.17;;;8.87;;
15256;SDS011;7731;50.720;6.912;2023-01-28T09:06:13;8.63;;;7.43;;
15256;SDS011;7731;50.720;6.912;2023-01-28T09:08:46;8.93;;;7.80;;
15256;SDS011;7731;50.720;6.912;2023-01-28T09:11:16;9.00;;;6.93;;
15256;SDS011;7731;50.720;6.912;2023-01-28T09:13:46;7.97;;;7.17;;
15256;SDS011;7731;50.720;6.912;2023-01-28T09:16:16;7.77;;;6.97;;
15256;SDS011;7731;50.720;6.912;2023-01-28T09:18:47;8.97;;;8.00;;
15256;SDS011;7731;50.720;6.912;2023-01-28T09:21:17;9.60;;;7.33;;
15256;SDS011;7731;50.720;6.912;2023-01-28T09:23:50;8.47;;;7.60;;
15256;SDS011;7731;50.720;6.912;2023-01-28T09:26:21;8.73;;;7.20;;
15256;SDS011;7731;50.720;6.912;2023-01-28T09:28:52;11.73;;;8.03;;
15256;SDS011;7731;50.720;6.912;2023-01-28T09:31:22;10.40;;;9.30;;
15256;SDS011;7731;50.720;6.912;2023-01-28T09:33:52;8.90;;;8.00;;
15256;SDS011;7731;50.720;6.912;2023-01-28T09:36:24;9.27;;;8.27;;
15256;SDS011;7731;50.720;6.912;2023-01-28T09:38:57;12.23;;;9.93;;
15256;SDS011;7731;50.720;6.912;2023-01-28T09:41:35;11.87;;;10.07;;
15256;SDS011;7731;50.720;6.912;2023-01-28T09:44:23;12.53;;;9.57;;
15256;SDS011;7731;50.720;6.912;2023-01-28T09:47:11;10.00;;;8.53;;
15256;SDS011;7731;50.720;6.912;2023-01-28T09:49:51;10.40;;;8.30;;
15256;SDS011;7731;50.720;6.912;2023-01-28T09:52:27;11.87;;;8.93;;
15256;SDS011;7731;50.720;6.912;2023-01-28T09:55:11;12.43;;;9.37;;
15256;SDS011;7731;50.720;6.912;2023-01-28T09:57:51;13.67;;;10.23;;
15256;SDS011;7731;50.720;6.912;2023-01-28T10:00:23;12.00;;;9.60;;
15256;SDS011;7731;50.720;6.912;2023-01-28T10:03:16;10.23;;;8.53;;
15256;SDS011;7731;50.720;6.912;2023-01-28T10:06:06;13.93;;;10.00;;
15256;SDS011;7731;50.720;6.912;2023-01-28T10:09:00;14.07;;;10.73;;
15256;SDS011;7731;50.720;6.912;2023-01-28T10:12:12;12.37;;;10.30;;
15256;SDS011;7731;50.720;6.912;2023-01-28T10:15:18;12.60;;;10.30;;
15256;SDS011;7731;50.720;6.912;2023-01-28T10:18:09;16.30;;;10.90;;
15256;SDS011;7731;50.720;6.912;2023-01-28T10:20:44;17.13;;;12.90;;
15256;SDS011;7731;50.720;6.912;2023-01-28T10:23:20;16.70;;;11.10;;
15256;SDS011;7731;50.720;6.912;2023-01-28T10:25:56;13.50;;;10.63;;
15256;SDS011;7731;50.720;6.912;2023-01-28T10:28:35;11.10;;;9.03;;
15256;SDS011;7731;50.720;6.912;2023-01-28T10:31:09;15.33;;;11.07;;
15256;SDS011;7731;50.720;6.912;2023-01-28T10:33:42;15.20;;;11.77;;
15256;SDS011;7731;50.720;6.912;2023-01-28T10:36:12;12.63;;;9.87;;
15256;SDS011;7731;50.720;6.912;2023-01-28T10:38:45;14.97;;;10.53;;
15256;SDS011;7731;50.720;6.912;2023-01-28T10:41:16;18.83;;;14.13;;
15256;SDS011;7731;50.720;6.912;2023-01-28T10:43:55;16.83;;;12.93;;
15256;SDS011;7731;50.720;6.912;2023-01-28T10:46:27;15.17;;;11.53;;
15256;SDS011;7731;50.720;6.912;2023-01-28T10:49:03;18.20;;;11.33;;
15256;SDS011;7731;50.720;6.912;2023-01-28T10:51:43;15.57;;;11.27;;
15256;SDS011;7731;50.720;6.912;2023-01-28T10:54:19;16.87;;;12.40;;
15256;SDS011;7731;50.720;6.912;2023-01-28T10:56:52;16.97;;;10.90;;
15256;SDS011;7731;50.720;6.912;2023-01-28T10:59:30;16.63;;;12.23;;
15256;SDS011;7731;50.720;6.912;2023-01-28T11:02:19;15.30;;;11.00;;
15256;SDS011;7731;50.720;6.912;2023-01-28T11:05:03;15.90;;;11.10;;
15256;SDS011;7731;50.720;6.912;2023-01-28T11:07:43;15.97;;;10.43;;
15256;SDS011;7731;50.720;6.912;2023-01-28T11:10:24;14.83;;;10.93;;
15256;SDS011;7731;50.720;6.912;2023-01-28T11:12:58;17.80;;;11.87;;
15256;SDS011;7731;50.720;6.912;2023-01-28T11:15:33;15.37;;;11.53;;
15256;SDS011;7731;50.720;6.912;2023-01-28T11:18:04;14.80;;;11.30;;
15256;SDS011;7731;50.720;6.912;2023-01-28T11:20:49;12.17;;;9.43;;
15256;SDS011;7731;50.720;6.912;2023-01-28T11:23:25;12.23;;;9.50;;
15256;SDS011;7731;50.720;6.912;2023-01-28T11:26:01;118.83;;;64.77;;
15256;SDS011;7731;50.720;6.912;2023-01-28T11:28:38;193.37;;;38.33;;
15256;SDS011;7731;50.720;6.912;2023-01-28T11:31:13;17.27;;;11.47;;
15256;SDS011;7731;50.720;6.912;2023-01-28T11:33:48;14.20;;;11.00;;
15256;SDS011;7731;50.720;6.912;2023-01-28T11:36:24;12.07;;;8.83;;
15256;SDS011;7731;50.720;6.912;2023-01-28T11:38:57;46.43;;;30.87;;
15256;SDS011;7731;50.720;6.912;2023-01-28T11:41:31;20.27;;;13.63;;
15256;SDS011;7731;50.720;6.912;2023-01-28T11:44:08;21.77;;;15.73;;
15256;SDS011;7731;50.720;6.912;2023-01-28T11:46:51;27.40;;;20.27;;
15256;SDS011;7731;50.720;6.912;2023-01-28T11:49:40;39.93;;;23.97;;
15256;SDS011;7731;50.720;6.912;2023-01-28T11:52:32;33.90;;;25.30;;
15256;SDS011;7731;50.720;6.912;2023-01-28T11:55:37;38.63;;;25.27;;
15256;SDS011;7731;50.720;6.912;2023-01-28T11:58:19;20.37;;;15.27;;
15256;SDS011;7731;50.720;6.912;2023-01-28T12:00:59;25.40;;;17.53;;
15256;SDS011;7731;50.720;6.912;2023-01-28T12:03:41;32.57;;;21.67;;
15256;SDS011;7731;50.720;6.912;2023-01-28T12:06:41;44.30;;;29.53;;
15256;SDS011;7731;50.720;6.912;2023-01-28T12:09:31;38.10;;;26.20;;
15256;SDS011;7731;50.720;6.912;2023-01-28T12:12:17;25.93;;;19.53;;
15256;SDS011;7731;50.720;6.912;2023-01-28T12:15:25;24.13;;;20.90;;
15256;SDS011;7731;50.720;6.912;2023-01-28T12:21:53;32.60;;;22.37;;
15256;SDS011;7731;50.720;6.912;2023-01-28T12:24:59;66.40;;;45.97;;
15256;SDS011;7731;50.720;6.912;2023-01-28T12:27:56;23.83;;;18.27;;
15256;SDS011;7731;50.720;6.912;2023-01-28T12:30:51;25.37;;;17.83;;
15256;SDS011;7731;50.720;6.912;2023-01-28T12:33:52;22.70;;;16.97;;
15256;SDS011;7731;50.720;6.912;2023-01-28T12:36:50;20.20;;;15.07;;
15256;SDS011;7731;50.720;6.912;2023-01-28T12:39:37;22.67;;;16.77;;
15256;SDS011;7731;50.720;6.912;2023-01-28T12:45:14;39.03;;;26.43;;
15256;SDS011;7731;50.720;6.912;2023-01-28T12:47:52;19.77;;;14.03;;
15256;SDS011;7731;50.720;6.912;2023-01-28T12:50:32;20.77;;;13.53;;
15256;SDS011;7731;50.720;6.912;2023-01-28T12:53:15;19.43;;;15.03;;
15256;SDS011;7731;50.720;6.912;2023-01-28T12:55:57;87.97;;;39.57;;
15256;SDS011;7731;50.720;6.912;2023-01-28T12:58:38;64.87;;;37.00;;
15256;SDS011;7731;50.720;6.912;2023-01-28T13:01:18;20.93;;;18.67;;
15256;SDS011;7731;50.720;6.912;2023-01-28T13:03:57;18.27;;;15.80;;
15256;SDS011;7731;50.720;6.912;2023-01-28T13:06:40;18.80;;;15.57;;
15256;SDS011;7731;50.720;6.912;2023-01-28T13:09:16;19.77;;;16.73;;
15256;SDS011;7731;50.720;6.912;2023-01-28T13:11:51;18.17;;;14.33;;
15256;SDS011;7731;50.720;6.912;2023-01-28T13:14:28;35.43;;;29.90;;
15256;SDS011;7731;50.720;6.912;2023-01-28T13:17:24;18.00;;;15.40;;
15256;SDS011;7731;50.720;6.912;2023-01-28T13:20:01;18.57;;;15.43;;
15256;SDS011;7731;50.720;6.912;2023-01-28T13:22:46;16.77;;;13.50;;
15256;SDS011;7731;50.720;6.912;2023-01-28T13:25:20;19.07;;;14.90;;
15256;SDS011;7731;50.720;6.912;2023-01-28T13:27:57;20.37;;;13.87;;
15256;SDS011;7731;50.720;6.912;2023-01-28T13:30:30;18.00;;;13.70;;
15256;SDS011;7731;50.720;6.912;2023-01-28T13:33:04;20.27;;;15.30;;
15256;SDS011;7731;50.720;6.912;2023-01-28T13:35:55;18.13;;;13.83;;
15256;SDS011;7731;50.720;6.912;2023-01-28T13:38:33;18.33;;;13.63;;
15256;SDS011;7731;50.720;6.912;2023-01-28T13:41:04;18.80;;;14.47;;
15256;SDS011;7731;50.720;6.912;2023-01-28T13:43:36;20.77;;;16.57;;
15256;SDS011;7731;50.720;6.912;2023-01-28T13:46:10;35.80;;;29.23;;
15256;SDS011;7731;50.720;6.912;2023-01-28T13:48:54;26.03;;;20.87;;
15256;SDS011;7731;50.720;6.912;2023-01-28T13:51:30;22.50;;;17.20;;
15256;SDS011;7731;50.720;6.912;2023-01-28T13:54:07;33.03;;;25.60;;
15256;SDS011;7731;50.720;6.912;2023-01-28T13:56:50;18.33;;;12.50;;
15256;SDS011;7731;50.720;6.912;2023-01-28T13:59:49;18.00;;;13.57;;
15256;SDS011;7731;50.720;6.912;2023-01-28T14:02:40;14.23;;;11.23;;
15256;SDS011;7731;50.720;6.912;2023-01-28T14:06:10;15.33;;;11.43;;
15256;SDS011;7731;50.720;6.912;2023-01-28T14:09:29;16.60;;;11.77;;
15256;SDS011;7731;50.720;6.912;2023-01-28T14:12:35;16.33;;;12.17;;
15256;SDS011;7731;50.720;6.912;2023-01-28T14:15:41;16.47;;;13.33;;
15256;SDS011;7731;50.720;6.912;2023-01-28T14:18:40;17.63;;;13.30;;
15256;SDS011;7731;50.720;6.912;2023-01-28T14:21:18;15.93;;;12.57;;
15256;SDS011;7731;50.720;6.912;2023-01-28T14:23:51;14.43;;;11.33;;
15256;SDS011;7731;50.720;6.912;2023-01-28T14:29:26;15.73;;;10.97;;
15256;SDS011;7731;50.720;6.912;2023-01-28T14:32:18;33.43;;;24.13;;
15256;SDS011;7731;50.720;6.912;2023-01-28T14:34:54;64.40;;;43.37;;
15256;SDS011;7731;50.720;6.912;2023-01-28T14:37:28;50.03;;;27.07;;
15256;SDS011;7731;50.720;6.912;2023-01-28T14:40:01;37.77;;;22.83;;
15256;SDS011;7731;50.720;6.912;2023-01-28T14:42:39;45.93;;;35.23;;
15256;SDS011;7731;50.720;6.912;2023-01-28T14:45:18;21.47;;;17.20;;
15256;SDS011;7731;50.720;6.912;2023-01-28T14:48:12;21.83;;;19.47;;
15256;SDS011;7731;50.720;6.912;2023-01-28T14:54:07;20.20;;;14.47;;
15256;SDS011;7731;50.720;6.912;2023-01-28T14:56:58;23.27;;;19.37;;
15256;SDS011;7731;50.720;6.912;2023-01-28T15:00:13;20.00;;;16.73;;
15256;SDS011;7731;50.720;6.912;2023-01-28T15:02:49;11.20;;;8.73;;
15256;SDS011;7731;50.720;6.912;2023-01-28T15:05:20;11.83;;;9.10;;
15256;SDS011;7731;50.720;6.912;2023-01-28T15:07:53;12.33;;;9.70;;
15256;SDS011;7731;50.720;6.912;2023-01-28T15:10:25;11.27;;;9.30;;
15256;SDS011;7731;50.720;6.912;2023-01-28T15:12:58;23.00;;;17.70;;
15256;SDS011;7731;50.720;6.912;2023-01-28T15:15:38;18.43;;;12.27;;
15256;SDS011;7731;50.720;6.912;2023-01-28T15:18:19;19.23;;;13.73;;
15256;SDS011;7731;50.720;6.912;2023-01-28T15:20:57;15.17;;;11.70;;
15256;SDS011;7731;50.720;6.912;2023-01-28T15:23:31;11.97;;;10.50;;
15256;SDS011;7731;50.720;6.912;2023-01-28T15:26:04;14.47;;;9.97;;
15256;SDS011;7731;50.720;6.912;2023-01-28T15:28:36;12.33;;;10.10;;
15256;SDS011;7731;50.720;6.912;2023-01-28T15:31:17;15.60;;;11.53;;
15256;SDS011;7731;50.720;6.912;2023-01-28T15:33:56;13.60;;;10.50;;
15256;SDS011;7731;50.720;6.912;2023-01-28T15:36:29;13.50;;;10.97;;
15256;SDS011;7731;50.720;6.912;2023-01-28T15:39:00;14.60;;;10.87;;
15256;SDS011;7731;50.720;6.912;2023-01-28T15:41:32;14.47;;;11.20;;
15256;SDS011;7731;50.720;6.912;2023-01-28T15:44:15;12.73;;;10.07;;
15256;SDS011;7731;50.720;6.912;2023-01-28T15:46:49;15.03;;;11.03;;
15256;SDS011;7731;50.720;6.912;2023-01-28T15:49:19;17.23;;;11.20;;
15256;SDS011;7731;50.720;6.912;2023-01-28T15:51:55;19.83;;;12.60;;
15256;SDS011;7731;50.720;6.912;2023-01-28T15:54:26;16.93;;;11.97;;
15256;SDS011;7731;50.720;6.912;2023-01-28T15:57:07;16.30;;;12.37;;
15256;SDS011;7731;50.720;6.912;2023-01-28T15:59:46;15.40;;;11.63;;